Weather observations for the past three days for
Sylvania, Plantation Airpark
Imperial (Metric)
Date Time (edt) Wind (mph) Vis. (mi.) Weather Sky Cond. Temperature (ºF) Relative Humidity Wind Chill (°F) Heat Index (°F) Pressure Precipitation (in)
Air Dwpt 6 hour altimeter (in) sea level (mb) 1 hr 3 hr 6 hr
Max. Min.
04 19:35 S 9 10.00 Fair CLR 70.2 49.6 48% 30 0.0
04 19:15 S 14 10.00 Fair CLR 70.9 49.6 47% 30 0.0
04 18:55 S 12 G 18 10.00 Fair CLR 72.5 49.3 44% 30 0.0
04 18:35 S 13 10.00 NULL NULL 73.9 49.8 43% 30 0.0
04 18:15 S 13 G 20 10.00 NULL NULL 74.8 49.3 41% 30 0.0
04 17:55 SW 6 10.00 NULL NULL 77.2 46.6 34% 78 29.99 0.0
04 17:35 S 9 10.00 NULL NULL 76.8 46.4 34% 78 29.99 0.0
04 17:15 SW 3 10.00 NULL NULL 77.7 46 33% 78 29.99 0.0
04 16:55 W 5 10.00 NULL NULL 77.2 45.3 32% 78 30 0.0
04 16:35 SW 6 10.00 NULL NULL 77 45.3 33% 78 30 0.0
04 16:15 W 5 10.00 NULL NULL 77.9 45 31% 78 30.01 0.0
04 15:55 S 3 10.00 NULL NULL 77 43.9 31% 78 30.02 0.0
04 15:35 W 7 10.00 NULL NULL 76.6 45 33% 78 30.03 0.0
04 15:15 S 7 10.00 Fair CLR 76.5 45.1 33% 78 30.03 0.0
04 14:55 Calm 10.00 Fair CLR 75.6 44.4 33% 77 30.04 0.0
04 14:35 Calm 10.00 NULL NULL 74.5 43.3 33% 30.05 0.0
04 14:15 Calm 10.00 NULL NULL 74.8 44.6 34% 30.05 0.0
04 13:55 W 5 10.00 NULL NULL 74.7 43.5 75.2 48.6 33% 30.05 0.0
04 13:35 Calm 10.00 NULL NULL 74.1 43.2 33% 30.06 0.0
04 13:15 Calm 10.00 NULL NULL 72.9 42.6 34% 30.06 0.0
04 12:55 Calm 10.00 NULL NULL 72.7 42.3 34% 30.07 0.0
04 12:35 Calm 10.00 NULL NULL 71.8 42.6 35% 30.08 0.0
04 12:15 NW 6 10.00 NULL NULL 72 43.7 36% 30.08 0.0
04 11:55 Calm 10.00 NULL NULL 70.7 44.1 38% 30.09 0.0
04 11:35 W 6 5.00 Haze NULL 70.3 44.8 40% 30.09 0.0
04 11:15 Calm 7.00 NULL NULL 69.3 46.4 44% 30.1 0.0
04 10:55 Calm 10.00 NULL NULL 68.5 47.8 48% 30.1 0.0
04 10:35 Calm 10.00 NULL NULL 66.9 48.4 52% 30.1 0.0
04 10:15 Calm 10.00 NULL NULL 65.5 50.9 59% 30.1 0.0
04 09:55 NW 3 7.00 NULL NULL 63.7 52.5 67% 30.1 0.0
04 09:35 NW 3 7.00 NULL NULL 61.9 54.9 78% 30.1 0.0
04 09:15 Calm 10.00 NULL NULL 59.4 56.1 89% 30.11 0.0
04 08:55 NW 3 10.00 NULL NULL 56.3 55.8 98% 30.1 0.0
04 08:35 Calm 7.00 NULL NULL 54 54 100% 30.1 0.0
04 08:15 Calm 7.00 NULL NULL 51.8 51.8 100% 30.1 0.0
04 07:55 Calm 7.00 NULL NULL 48.4 48.4 49.1 43.2 100% 30.1 0.0
04 07:35 Calm 10.00 NULL NULL 45.7 45.7 100% 30.09 0.0
04 07:15 Calm 7.00 NULL NULL 44.2 44.2 100% 30.09 0.0
04 06:55 Calm 7.00 NULL NULL 43.5 43.5 100% 30.08 0.0
04 06:35 Calm 7.00 NULL NULL 43.5 43.5 100% 30.08 0.0
04 06:15 Calm 7.00 NULL NULL 44.1 44.1 100% 30.08 0.0
04 05:55 Calm 7.00 NULL NULL 44.8 44.8 100% 30.08 0.0
04 05:35 Calm 5.00 Fog/Mist NULL 45.3 45.3 100% 30.08 0.0
04 05:15 Calm 5.00 Fog/Mist NULL 45.5 45.5 100% 30.08 0.0
04 04:55 Calm 5.00 Fog/Mist NULL 45.5 45.5 100% 30.07 0.0
04 04:35 Calm 5.00 Fog/Mist NULL 46 46 100% 30.07 0.0
04 04:15 Calm 5.00 Fog/Mist NULL 46.6 46.6 100% 30.08 0.0
04 03:55 Calm 5.00 Fog/Mist NULL 47.3 47.3 100% 30.08 0.0
04 03:35 Calm 5.00 Fog/Mist NULL 47.1 47.1 100% 30.08 0.0
04 03:15 Calm 5.00 Fog/Mist NULL 47.3 47.3 100% 30.09 0.0
04 02:55 Calm 5.00 Fog/Mist NULL 47.8 47.8 100% 30.1 0.0
04 02:35 Calm 5.00 Fog/Mist NULL 48.4 48.4 100% 30.1 0.0
04 02:15 Calm 5.00 Fog/Mist CLR 48.9 48.9 100% 30.1 0.0
04 01:55 Calm 7.00 Fair CLR 48.4 48.4 63 48.4 100% 30.1 0.0
04 01:35 Calm 5.00 Fog/Mist CLR 50 50 100% 30.11 0.0
04 01:15 Calm 5.00 Fog/Mist NULL 50.5 50.5 100% 30.1 0.0
04 00:55 Calm 5.00 Fog/Mist NULL 51.1 51.1 100% 30.1 0.0
04 00:35 Calm 5.00 Fog/Mist NULL 52 52 100% 30.11 0.0
04 00:15 Calm 5.00 Fog/Mist NULL 52.5 52.5 100% 30.1 0.0
03 23:55 Calm 5.00 Fog/Mist NULL 51.8 51.8 100% 30.1 0.0
03 23:35 Calm 7.00 NULL NULL 54 53.2 97% 30.1 0.0
03 23:15 Calm 7.00 NULL NULL 55.8 51.8 87% 30.1 0.0
03 22:55 Calm 7.00 NULL NULL 56.5 51.3 83% 30.1 0.0
03 22:35 S 3 10.00 NULL NULL 57.2 50.9 80% 30.09 0.0
03 22:15 Calm 7.00 NULL NULL 57.7 51.3 79% 30.09 0.0
03 21:55 S 3 7.00 NULL NULL 57.7 51.4 80% 30.09 0.0
03 21:35 Calm 10.00 NULL NULL 56.5 52.5 87% 30.08 0.0
03 21:15 Calm 10.00 NULL NULL 55.6 55.6 100% 30.06 0.0
03 20:55 Calm 10.00 NULL NULL 57.9 57.6 99% 30.06 0.0
03 20:35 Calm 10.00 NULL NULL 59 55.6 89% 30.05 0.0
03 20:15 Calm 10.00 NULL NULL 62.4 52.2 69% 30.05 0.0
03 19:55 Calm 7.00 NULL NULL 62.8 52.2 70.9 62.8 68% 30.04 0.0
03 19:35 Calm 10.00 NULL NULL 67.5 46.4 47% 30.04 0.0
03 19:15 NW 3 10.00 NULL NULL 68.9 44.4 41% 30.04 0.0
03 18:55 W 6 10.00 NULL NULL 69.4 43.2 39% 30.04 0.0
03 18:35 NW 3 10.00 NULL NULL 70 42.3 37% 30.04 0.0
03 18:15 W 8 7.00 NULL NULL 70.2 43 38% 30.04 0.0
03 17:55 N 6 10.00 NULL NULL 70.5 42.3 36% 30.05 0.0
03 17:35 NW 8 10.00 NULL NULL 70.7 43.3 37% 30.05 0.0
03 17:15 SW 3 7.00 NULL NULL 69.6 41.9 37% 30.04 0.0
03 16:55 NW 5 10.00 NULL NULL 70.5 43.5 38% 30.05 0.0
03 16:35 NW 3 7.00 NULL NULL 70 43.2 38% 30.05 0.0
03 16:15 NW 8 7.00 NULL NULL 70.2 44.1 39% 30.06 0.0
03 15:55 NW 8 7.00 Fair CLR 69.8 43 38% 30.07 0.0
03 15:35 NE 3 10.00 Partly Cloudy SCT070 69.3 42.4 38% 30.08 0.0
03 14:55 Calm 10.00 NULL NULL 69.1 42.3 38% 30.1 0.0
03 14:35 NW 8 7.00 NULL NULL 68 44.1 42% 30.11 0.0
03 14:15 Calm 10.00 NULL NULL 67.8 42.6 40% 30.12 0.0
03 13:55 NW 6 10.00 NULL NULL 67.6 44.8 67.6 45.5 44% 30.12 0.0
03 13:35 NW 7 7.00 NULL NULL 65.8 44.2 46% 30.13 0.0
03 13:15 NW 9 5.00 Haze NULL 67.3 44.1 43% 30.13 0.0
03 12:55 Calm 5.00 Haze NULL 66.4 46.2 48% 30.13 0.0
03 12:35 NW 6 5.00 Haze NULL 65.5 46.4 50% 30.14 0.0
03 12:15 Calm 5.00 Haze NULL 63.9 47.3 55% 30.14 0.0
03 11:55 W 3 5.00 Haze NULL 64.6 48.2 56% 30.14 0.0
03 11:35 Calm 10.00 NULL NULL 63.5 48 57% 30.14 0.0
03 11:15 Calm 10.00 NULL NULL 62.6 48 59% 30.14 0.0
03 10:55 Calm 10.00 NULL NULL 61.5 49.1 64% 30.15 0.0
03 10:35 Calm 10.00 NULL NULL 60.6 48.7 65% 30.15 0.0
03 10:15 Calm 10.00 NULL NULL 59.2 49.8 71% 30.15 0.0
03 09:55 Calm 10.00 NULL NULL 55.6 52.2 88% 30.15 0.0
03 09:35 Calm 10.00 NULL NULL 54.1 54 99% 30.15 0.0
03 09:15 Calm 10.00 NULL NULL 52.7 52.7 100% 30.14 0.0
03 08:55 Calm 10.00 NULL NULL 51.1 51.1 100% 30.13 0.0
03 08:35 Calm 0.50 Fog NULL 49.3 49.3 100% 30.13 0.0
03 08:15 Calm 0.25 Fog NULL 47.3 47.3 100% 30.13 0.0
03 07:55 Calm 0.25 Fog NULL 45.5 45.5 50.9 43.2 100% 30.12 0.0
03 07:35 Calm 0.50 Fog NULL 44.2 44.2 100% 30.11 0.0
03 07:15 Calm 0.25 Fog NULL 43.2 43.2 100% 30.11 0.0
03 06:55 Calm 0.50 Fog NULL 43.7 43.7 100% 30.1 0.0
03 06:35 Calm 0.75 Fog/Mist NULL 43.7 43.7 100% 30.09 0.0
03 06:15 Calm 2.00 Fog/Mist NULL 44.8 44.8 100% 30.08 0.0
03 05:55 Calm 0.50 Fog NULL 44.6 44.6 100% 30.08 0.0
03 05:35 Calm 0.75 Fog/Mist NULL 45.5 45.5 100% 30.08 0.0
03 05:15 Calm 0.50 Fog NULL 44.8 44.8 100% 30.07 0.0
03 04:55 Calm 5.00 Fog/Mist NULL 46 46 100% 30.07 0.0
03 04:35 Calm 3.00 Fog/Mist NULL 45.5 45.5 100% 30.06 0.0
03 04:15 Calm 5.00 Fog/Mist NULL 47.1 47.1 100% 30.06 0.0
03 03:55 Calm 5.00 Fog/Mist NULL 47.1 47.1 100% 30.06 0.0
03 03:35 Calm 4.00 Fog/Mist NULL 48.4 48.4 100% 30.05 0.0
03 03:15 Calm 4.00 Fog/Mist NULL 48.9 48.9 100% 30.04 0.0
03 02:55 Calm 4.00 Fog/Mist NULL 48.4 48.4 100% 30.04 0.0
03 02:35 Calm 4.00 Fog/Mist NULL 49.1 49.1 100% 30.04 0.0
03 02:15 Calm 5.00 Fog/Mist NULL 50.4 50.4 100% 30.04 0.0
03 01:55 Calm 7.00 NULL NULL 50.9 50.9 55.4 50.9 100% 30.04 0.0
03 01:35 Calm 7.00 NULL NULL 51.3 51.3 100% 30.04 0.0
03 01:15 Calm 5.00 Fog/Mist NULL 51.8 51.8 100% 30.04 0.0
03 00:55 N 3 7.00 NULL NULL 52.3 52.3 100% 30.04 0.0
03 00:35 Calm 5.00 Fog/Mist NULL 52.3 52.3 100% 30.03 0.0
03 00:15 Calm 7.00 NULL NULL 52.7 52.7 100% 30.02 0.0
02 23:55 Calm 7.00 NULL NULL 52.7 52.7 100% 30.02 0.0
02 23:35 NE 5 7.00 NULL NULL 52.9 52.9 100% 30.02 0.0
02 23:15 Calm 5.00 Fog/Mist NULL 52.9 52.9 100% 30.01 0.0
02 22:55 Calm 5.00 Fog/Mist NULL 52.7 52.7 100% 30.01 0.0
02 22:35 Calm 7.00 NULL NULL 52.7 52.7 100% 29.99 0.0
02 22:15 Calm 5.00 Fog/Mist NULL 53.1 53.1 100% 29.99 0.0
02 21:55 Calm 7.00 NULL NULL 53.4 53.4 100% 29.98 0.0
02 21:35 NE 5 7.00 NULL NULL 54 54 100% 29.97 0.0
02 21:15 NE 5 7.00 NULL NULL 54.5 54.5 100% 29.96 0.0
02 20:55 NE 5 7.00 NULL NULL 54.9 54.9 100% 29.96 0.0
02 20:35 NE 3 7.00 NULL NULL 54.9 54.9 100% 29.95 0.0
02 20:15 Calm 7.00 NULL NULL 55 55 100% 29.94 0.0
02 19:55 E 3 5.00 Fog/Mist NULL 55.4 55.4 58.3 55.4 100% 29.93 0.0 0.03
02 19:35 NE 5 5.00 Fog/Mist NULL 55.8 55.8 100% 29.92 0.0
02 19:15 E 5 5.00 Fog/Mist NULL 56.3 56.3 100% 29.9 0.0
02 18:55 E 5 4.00 Fog/Mist NULL 55.6 55.6 100% 29.9 0.0
02 18:35 NE 7 5.00 Fog/Mist NULL 55.4 55.4 100% 29.91 0.0
02 18:15 N 8 5.00 Fog/Mist NULL 56.8 56.8 100% 29.9 0.0
02 17:55 N 7 5.00 Light Rain NULL 57.2 57.2 100% 29.89 0.0
02 17:35 N 6 5.00 Fog/Mist NULL 57.7 57.7 100% 29.88 0.0
02 17:15 N 3 4.00 Fog/Mist NULL 58.1 58.1 100% 29.88 0.0
02 16:55 N 7 3.00 Fog/Mist NULL 57.6 57.6 100% 29.88 0.0 0.03
02 16:35 N 6 4.00 Fog/Mist NULL 57.6 57.6 100% 29.88 0.0
02 16:15 N 8 4.00 Fog/Mist NULL 56.8 56.8 100% 29.88 0.0
02 15:55 N 7 4.00 Rain NULL 56.1 56.1 100% 29.88 0.0 0.01
02 15:35 NE 8 2.50 Light Rain NULL 56.1 56.1 100% 29.88 0.0 0.01
02 15:15 NE 7 3.00 Light Rain NULL 57.2 57.2 100% 29.87 0.0
02 14:55 NE 6 5.00 Light Drizzle NULL 57.2 57.2 100% 29.88 0.0 0.02
02 14:35 NE 7 4.00 Light Rain NULL 57 57 100% 29.88 0.0 0.02
02 14:15 NE 7 4.00 Light Rain NULL 56.5 56.5 100% 29.88 0.0 0.01
02 13:55 NE 7 5.00 Fog/Mist NULL 57.4 57.4 57.9 54.9 100% 29.89 0.0 0.35
02 13:35 NE 8 10.00 Light Drizzle NULL 57.4 57.4 100% 29.87 0.0
02 13:15 E 9 7.00 Light Rain NULL 57.4 57.4 100% 29.87 0.0
02 12:55 E 7 7.00 Light Rain NULL 57.4 57.4 100% 29.86 0.0 0.03
02 12:35 NE 7 7.00 Light Rain NULL 57.2 57.2 100% 29.87 0.0 0.03
02 12:15 NE 6 7.00 Light Rain NULL 56.8 56.8 100% 29.89 0.0 0.03
02 11:55 N 6 7.00 Rain NULL 56.1 56.1 100% 29.91 0.0 0.04
02 11:35 E 6 7.00 Light Rain NULL 55.8 55.8 100% 29.87 0.0 0.02
02 11:15 NE 7 10.00 Light Rain NULL 55.6 55.6 100% 29.89 0.0 0.01
02 10:55 NE 5 7.00 Rain NULL 55.9 55.9 100% 29.89 0.0 0.06 0.28
02 10:35 NE 5 10.00 Rain NULL 55.8 55.8 100% 29.9 0.0 0.03
02 10:15 NE 5 7.00 Rain NULL 55.8 55.8 100% 29.89 0.0 0.02
02 09:55 NE 5 5.00 Rain NULL 55.4 55.4 100% 29.9 0.0 0.1
02 09:35 Calm 5.00 Rain NULL 55 55 100% 29.9 0.0 0.06
02 09:15 NE 8 7.00 Rain NULL 54.9 54.9 100% 29.89 0.0 0.02
02 08:55 NE 9 7.00 Rain NULL 55.4 55.4 100% 29.88 0.0 0.12
02 08:35 NE 7 7.00 Rain NULL 55.8 55.8 100% 29.88 0.0 0.09
02 08:15 NE 9 7.00 Rain NULL 55.9 55.9 100% 29.88 0.0 0.04
02 07:55 N 3 4.00 Heavy Rain NULL 56.3 56.3 60.1 56.3 100% 29.87 0.0 0.12 0.44
02 07:35 N 3 5.00 Rain NULL 56.8 56.8 100% 29.86 0.0 0.07
02 07:15 NE 6 7.00 Rain NULL 57.2 57.2 100% 29.86 0.0 0.03
02 06:55 N 3 10.00 Light Rain NULL 57.2 57.2 100% 29.86 0.0 0.01
02 06:35 NE 6 7.00 Light Rain NULL 57.2 57.2 100% 29.83 0.0 0.01
02 06:15 NE 7 10.00 Light Rain NULL 57.2 57.2 100% 29.84 0.0 0.01
02 05:55 Calm 7.00 Rain NULL 57.2 57.2 100% 29.86 0.0 0.07
02 05:35 NE 3 7.00 Light Rain NULL 57.2 57.2 100% 29.86 0.0 0.06
02 05:15 NE 5 7.00 Rain NULL 57.6 57.6 100% 29.87 0.0 0.03
02 04:55 Calm 7.00 Rain NULL 58.3 58.3 100% 29.88 0.0 0.07 0.24
02 04:35 Calm 5.00 Rain NULL 58.5 58.5 100% 29.88 0.0 0.05
02 04:15 Calm 5.00 Rain NULL 58.5 58.5 100% 29.89 0.0 0.03
02 03:55 Calm 10.00 Light Rain NULL 58.5 58.5 100% 29.89 0.0 0.08
02 03:35 N 5 7.00 Rain NULL 59 59 100% 29.88 0.0 0.07
02 03:15 Calm 10.00 Rain NULL 58.1 58.1 100% 29.9 0.0 0.02
02 02:55 N 6 5.00 Rain NULL 59.4 59.4 100% 29.87 0.0 0.08
02 02:35 NW 3 7.00 Rain NULL 59.4 59.4 100% 29.89 0.0 0.04
02 02:15 N 7 7.00 Light Rain NULL 59.9 59.9 100% 29.9 0.0 0.02
02 01:55 NW 3 7.00 Light Rain NULL 60.1 60.1 62.6 60.1 100% 29.9 0.0 0.06 0.1
02 01:35 N 3 5.00 Light Rain NULL 60.1 60.1 100% 29.9 0.0 0.05
02 01:15 NW 3 5.00 Rain NULL 60.3 60.3 100% 29.91 0.0 0.01
02 00:55 Calm 5.00 Rain NULL 60.3 60.3 100% 29.91 0.0 0.03
02 00:35 NW 3 5.00 Light Rain NULL 60.4 60.4 100% 29.9 0.0 0.02
02 00:15 Calm 2.00 Rain NULL 60.8 60.8 100% 29.9 0.0 0.01
01 23:55 Calm 1.75 Light Rain NULL 60.8 60.8 100% 29.89 0.0 0.01
01 23:35 Calm 3.00 Light Rain NULL 60.8 60.8 100% 29.9 0.0 0.01
01 23:15 NE 3 7.00 Light Drizzle NULL 60.8 60.8 100% 29.9 0.0
01 22:55 NE 3 5.00 Light Rain NULL 61 61 100% 29.9 0.0
01 22:35 Calm 5.00 Fog/Mist NULL 61.2 61.2 100% 29.91 0.0
01 22:15 Calm 5.00 Fog/Mist NULL 61.3 61.3 100% 29.9 0.0
01 21:55 Calm 7.00 Light Drizzle NULL 61.7 61.7 100% 29.91 0.0
01 21:35 Calm 5.00 Fog/Mist NULL 61.9 61.9 100% 29.91 0.0
01 21:15 Calm 7.00 NULL NULL 62.2 62.2 100% 29.92 0.0
01 20:55 Calm 5.00 Light Rain NULL 62.1 62.1 100% 29.92 0.0
01 20:35 NE 3 4.00 Fog/Mist NULL 62.4 62.4 100% 29.9 0.0
01 20:15 NE 3 5.00 Fog/Mist NULL 62.6 62.6 100% 29.88 0.0
Date Time (edt) Wind (mph) Vis. (mi.) Weather Sky Cond. Air Dwpt Max. Min. Relative Humidity Wind Chill (°F) Heat Index (°F) altimeter (in) sea level (mb) 1 hr 3 hr 6 hr
6 hour
Temperature (ºF) Pressure Precipitation (in)